Saturday, November 18, 2017, 7:08 AM EST
Back to Local

KAFN, Jaffrey Muni-silver Ranch

Location: Jaffrey, NH, United States Lat: 42.8
Local Time: 7:08 AM EST (12:08 GMT) Lon: -72
Time Zone: US/Eastern Elev: 1040 ft

Show me the last for .
Show Decoded

2017-11-18 06:52 METAR KAFN 181152Z AUTO 17004KT 10SM CLR M06/M08 A2994 RMK AO2 SLP156 T10561078
                 11022 21056 53003 TSNO =
2017-11-18 05:52 METAR KAFN 181052Z AUTO 00000KT 10SM CLR M06/M08 A2992 RMK AO2 SLP151 T10561078
                 TSNO =
2017-11-18 04:52 METAR KAFN 180952Z AUTO 00000KT 10SM CLR M06/M07 A2993 RMK AO2 SLP153 T10561072
                 TSNO =
2017-11-18 03:52 METAR KAFN 180852Z AUTO 00000KT 10SM CLR M05/M08 A2993 RMK AO2 SLP152 T10501078
                 55008 TSNO =
2017-11-18 02:52 METAR KAFN 180752Z AUTO 00000KT 10SM CLR M04/M08 A2992 RMK AO2 SLP150 T10441083
                 TSNO =
2017-11-18 01:52 METAR KAFN 180652Z AUTO 00000KT 10SM CLR M04/M08 A2995 RMK AO2 SLP158 T10441083
                 TSNO =
2017-11-18 00:52 METAR KAFN 180552Z AUTO 00000KT 10SM CLR M02/M10 A2995 RMK AO2 SLP159 T10221100
                 10017 21033 56003 TSNO =
2017-11-17 23:52 METAR KAFN 180452Z AUTO 00000KT 10SM CLR M03/M09 A2996 RMK AO2 SLP163 T10331089
                 400391033 TSNO =
2017-11-17 22:52 METAR KAFN 180352Z AUTO 00000KT 10SM CLR M01/M10 A2996 RMK AO2 SLP161 T10111100
                 TSNO =
2017-11-17 21:52 METAR KAFN 180252Z AUTO 00000KT 10SM CLR M01/M09 A2996 RMK AO2 SLP164 T10111094
                 51004 TSNO =
2017-11-17 20:52 METAR KAFN 180152Z AUTO 13005KT 10SM CLR 00/M11 A2996 RMK AO2 SLP160 T00001106
                 TSNO =
2017-11-17 19:52 METAR KAFN 180052Z AUTO 31008KT 280V340 10SM CLR 02/M12 A2996 RMK AO2 SLP162
                 T00171117 TSNO =
2017-11-17 18:52 METAR KAFN 172352Z AUTO VRB05KT 10SM CLR 01/M10 A2995 RMK AO2 SLP158 T00111100
                 10033 20011 51009 TSNO =
2017-11-17 17:52 METAR KAFN 172252Z AUTO 24006KT 10SM CLR 02/M09 A2995 RMK AO2 SLP156 T00171094
                 TSNO =
2017-11-17 16:52 METAR KAFN 172152Z AUTO VRB03KT 10SM CLR 02/M08 A2994 RMK AO2 SLP153 T00171083
                 TSNO =
2017-11-17 15:52 METAR KAFN 172052Z AUTO 27005KT 10SM CLR 03/M08 A2992 RMK AO2 SLP147 T00281078
                 53008 TSNO =
2017-11-17 14:52 METAR KAFN 171952Z AUTO 31011G19KT 290V350 10SM CLR 03/M07 A2991 RMK AO2 SLP142
                 T00331072 TSNO =
2017-11-17 13:52 METAR KAFN 171852Z AUTO VRB06G14KT 10SM CLR 03/M06 A2990 RMK AO2 SLP137
                 T00331061 TSNO =
2017-11-17 12:52 METAR KAFN 171752Z AUTO 30006KT 10SM FEW034 03/M04 A2990 RMK AO2 SLP139
                 T00281044 10028 20006 55008 TSNO =
2017-11-17 11:52 METAR KAFN 171652Z AUTO 32007KT 280V360 10SM BKN030 BKN036 02/M04 A2990 RMK AO2
                 SLP139 T00221044 TSNO =
2017-11-17 11:15 METAR KAFN 171615Z AUTO 31007G18KT 270V350 10SM SCT028 01/M04 A2990 RMK AO2
                 T00111044 TSNO =
2017-11-17 10:52 METAR KAFN 171552Z AUTO 33010G20KT 300V010 10SM OVC028 01/M04 A2991 RMK AO2
                 SLP143 T00111044 TSNO =
2017-11-17 09:52 METAR KAFN 171452Z AUTO 33009G20KT 270V020 10SM BKN024 OVC030 01/M04 A2993 RMK
                 AO2 SLP148 T00061044 51026 TSNO =
2017-11-17 08:52 METAR KAFN 171352Z AUTO 33007G15KT 280V020 10SM OVC023 01/M04 A2990 RMK AO2 PK
                 WND 29028/1329 SLP140 T00061044 TSNO =
2017-11-17 07:52 METAR KAFN 171252Z AUTO VRB06G18KT 10SM OVC025 01/M04 A2988 RMK AO2 SLP132
                 T00061039 TSNO =

Support USWX by starting your Amazon purchase here.